createdAt,value
2019-04-20T00:01:38.762Z,3.23
2019-04-20T00:04:09.908Z,3.10
2019-04-20T00:06:43.178Z,3.17
2019-04-20T00:09:11.869Z,3.83
2019-04-20T00:11:47.101Z,3.23
2019-04-20T00:14:10.382Z,3.63
2019-04-20T00:16:31.685Z,3.27
2019-04-20T00:19:01.859Z,3.20
2019-04-20T00:21:27.214Z,3.20
2019-04-20T00:23:54.770Z,3.30
2019-04-20T00:26:34.058Z,3.30
2019-04-20T00:29:06.918Z,3.20
2019-04-20T00:31:38.023Z,3.20
2019-04-20T00:33:56.209Z,3.30
2019-04-20T00:36:16.173Z,3.30
2019-04-20T00:38:50.938Z,3.13
2019-04-20T00:41:14.291Z,3.17
2019-04-20T00:43:42.131Z,3.23
2019-04-20T00:46:19.581Z,3.40
2019-04-20T00:48:48.497Z,3.00
2019-04-20T00:51:24.970Z,3.20
2019-04-20T00:53:39.624Z,3.40
2019-04-20T00:56:03.769Z,3.10
2019-04-20T00:58:42.118Z,3.30
2019-04-20T01:01:20.669Z,3.70
2019-04-20T01:03:43.207Z,3.90
2019-04-20T01:06:19.010Z,3.27
2019-04-20T01:08:25.697Z,3.30
2019-04-20T01:10:55.708Z,3.10
2019-04-20T01:13:24.825Z,3.40
2019-04-20T01:15:55.395Z,3.17
2019-04-20T01:18:18.098Z,3.20
2019-04-20T01:20:45.266Z,3.27
2019-04-20T01:23:15.806Z,3.53
2019-04-20T01:25:43.793Z,3.20
2019-04-20T01:28:29.928Z,2.80
2019-04-20T01:30:45.792Z,3.50
2019-04-20T01:33:22.860Z,3.10
2019-04-20T01:35:48.913Z,3.10
2019-04-20T01:38:20.902Z,3.70
2019-04-20T01:40:32.028Z,2.83
2019-04-20T01:42:59.493Z,3.13
2019-04-20T01:45:31.427Z,3.10
2019-04-20T01:47:57.846Z,3.20
2019-04-20T01:50:27.669Z,3.33
2019-04-20T01:53:03.503Z,3.30
2019-04-20T01:55:43.993Z,2.90
2019-04-20T01:58:12.151Z,4.17
2019-04-20T02:00:30.732Z,3.00
2019-04-20T02:02:58.679Z,3.10
2019-04-20T02:05:29.064Z,3.37
2019-04-20T02:07:53.907Z,3.40
2019-04-20T02:10:22.890Z,3.50
2019-04-20T02:12:53.052Z,3.20
2019-04-20T02:15:24.256Z,3.00
2019-04-20T02:17:59.709Z,2.90
2019-04-20T02:20:54.490Z,2.90
2019-04-20T02:23:16.498Z,3.20
2019-04-20T02:25:31.160Z,2.90
2019-04-20T02:28:18.962Z,3.50
2019-04-20T02:33:40.043Z,3.77
2019-04-20T02:36:04.808Z,3.63
2019-04-20T02:38:38.856Z,3.60
2019-04-20T02:41:02.394Z,3.47
2019-04-20T02:43:34.777Z,3.27
2019-04-20T02:45:49.130Z,3.23
2019-04-20T02:48:13.429Z,3.63
2019-04-20T02:50:59.264Z,3.10
2019-04-20T02:55:53.507Z,2.90
2019-04-20T02:58:20.411Z,3.13
2019-04-20T03:00:35.442Z,3.60
2019-04-20T03:02:55.322Z,3.53
2019-04-20T03:05:20.430Z,4.60
2019-04-20T03:07:57.399Z,5.00
2019-04-20T03:10:34.337Z,5.13
2019-04-20T03:12:57.064Z,4.20
2019-04-20T03:15:33.764Z,3.30
2019-04-20T03:17:58.794Z,3.90
2019-04-20T03:20:29.966Z,4.80
2019-04-20T03:25:24.233Z,4.13
2019-04-20T03:27:46.130Z,3.57
2019-04-20T03:31:08.823Z,3.70
2019-04-20T03:35:22.495Z,3.73
2019-04-20T03:37:42.697Z,4.30
2019-04-20T03:40:09.902Z,4.40
2019-04-20T03:42:24.454Z,4.33
2019-04-20T03:44:58.693Z,3.70
2019-04-20T03:47:31.462Z,3.70
2019-04-20T03:50:16.754Z,4.83
2019-04-20T03:52:32.844Z,4.30
2019-04-20T03:54:54.353Z,5.03
2019-04-20T03:57:38.333Z,4.50
2019-04-20T04:00:04.866Z,4.23
2019-04-20T04:04:59.077Z,3.77
2019-04-20T04:07:19.546Z,4.23
2019-04-20T04:09:56.408Z,3.80
2019-04-20T04:13:03.077Z,4.00
2019-04-20T04:15:29.885Z,5.30
2019-04-20T04:17:58.468Z,4.80
2019-04-20T04:20:32.981Z,4.27
2019-04-20T04:23:10.349Z,4.20
2019-04-20T04:25:33.686Z,4.10
2019-04-20T04:28:09.322Z,8.43
2019-04-20T04:30:33.056Z,4.97
2019-04-20T04:33:32.217Z,4.33
2019-04-20T04:35:29.808Z,3.97
2019-04-20T04:38:02.698Z,4.20
2019-04-20T04:40:42.180Z,4.47
2019-04-20T04:43:05.700Z,4.83
2019-04-20T04:45:17.241Z,5.10
2019-04-20T04:47:42.892Z,5.57
2019-04-20T04:50:16.435Z,6.97
2019-04-20T04:52:49.237Z,7.83
2019-04-20T04:55:20.038Z,5.87
2019-04-20T04:57:36.928Z,8.00
2019-04-20T05:00:11.126Z,7.60
2019-04-20T05:02:41.252Z,8.33
2019-04-20T05:05:25.448Z,9.27
2019-04-20T05:07:47.824Z,15.47
2019-04-20T05:10:01.952Z,16.10
2019-04-20T05:12:33.122Z,15.63
2019-04-20T05:15:05.216Z,15.20
2019-04-20T05:17:45.317Z,15.47
2019-04-20T05:20:16.062Z,14.00
2019-04-20T05:22:42.848Z,13.53
2019-04-20T05:25:10.840Z,10.73
2019-04-20T05:27:40.093Z,11.87
2019-04-20T05:29:49.252Z,10.77
2019-04-20T05:32:24.719Z,11.50
2019-04-20T05:35:08.461Z,13.23
2019-04-20T05:37:59.598Z,13.30
2019-04-20T05:40:09.390Z,10.83
2019-04-20T05:42:30.218Z,10.30
2019-04-20T05:44:57.255Z,17.03
2019-04-20T05:47:26.603Z,13.13
2019-04-20T05:49:53.868Z,9.37
2019-04-20T05:54:57.314Z,14.27
2019-04-20T05:57:25.167Z,14.60
2019-04-20T05:59:56.211Z,14.47
2019-04-20T06:02:26.264Z,14.40
2019-04-20T06:05:00.203Z,14.40
2019-04-20T06:07:20.928Z,13.33
2019-04-20T06:09:46.255Z,12.03
2019-04-20T06:12:31.499Z,10.70
2019-04-20T06:14:39.424Z,10.53
2019-04-20T06:17:08.861Z,12.53
2019-04-20T06:19:57.555Z,12.87
2019-04-20T06:22:14.930Z,10.00
2019-04-20T06:24:44.838Z,10.63
2019-04-20T06:27:04.784Z,10.00
2019-04-20T06:29:31.819Z,8.80
2019-04-20T06:32:07.020Z,7.63
2019-04-20T06:34:37.729Z,8.73
2019-04-20T06:37:02.074Z,7.43
2019-04-20T06:44:32.260Z,4.60
2019-04-20T06:51:59.984Z,5.47
2019-04-20T06:54:15.916Z,4.60
2019-04-20T06:56:54.425Z,4.70
2019-04-20T06:59:27.675Z,5.00
2019-04-20T07:01:56.918Z,5.57
2019-04-20T07:04:43.110Z,6.73
2019-04-20T07:09:27.218Z,6.17
2019-04-20T07:11:47.756Z,5.37
2019-04-20T07:14:00.962Z,5.73
2019-04-20T07:16:47.870Z,4.40
2019-04-20T07:19:17.284Z,4.00
2019-04-20T07:21:57.363Z,3.33
2019-04-20T07:24:11.782Z,3.70
2019-04-20T07:26:39.982Z,3.30
2019-04-20T07:29:13.552Z,3.23
2019-04-20T07:31:29.645Z,3.20
2019-04-20T07:34:03.721Z,3.40
2019-04-20T07:36:32.328Z,3.70
2019-04-20T07:39:03.723Z,3.37
2019-04-20T07:41:33.023Z,3.83
2019-04-20T07:44:02.969Z,3.80
2019-04-20T07:46:41.098Z,3.27
2019-04-20T07:48:56.457Z,3.10
2019-04-20T07:51:13.713Z,3.50
2019-04-20T07:53:45.030Z,3.00
2019-04-20T07:56:25.902Z,2.80
2019-04-20T07:58:36.699Z,2.97
2019-04-20T08:01:22.579Z,3.10
2019-04-20T08:04:01.380Z,3.27
2019-04-20T08:06:02.428Z,2.87
2019-04-20T08:08:38.539Z,3.33
2019-04-20T08:11:07.352Z,3.10
2019-04-20T08:13:46.700Z,2.77
2019-04-20T08:16:08.758Z,3.40
2019-04-20T08:18:40.041Z,3.00
2019-04-20T08:21:06.408Z,2.70
2019-04-20T08:23:34.861Z,2.90
2019-04-20T08:25:53.241Z,3.73
2019-04-20T08:28:16.439Z,2.87
2019-04-20T08:30:57.102Z,2.90
2019-04-20T08:33:29.915Z,3.23
2019-04-20T08:36:01.229Z,3.03
2019-04-20T08:40:53.634Z,2.57
2019-04-20T08:43:37.687Z,3.10
2019-04-20T08:45:49.235Z,3.30
2019-04-20T08:48:27.469Z,2.47
2019-04-20T08:50:50.688Z,2.60
2019-04-20T08:53:20.756Z,2.60
2019-04-20T08:55:42.540Z,2.50
2019-04-20T08:57:54.344Z,2.13
2019-04-20T09:00:29.322Z,2.33
2019-04-20T09:02:57.875Z,2.50
2019-04-20T09:05:32.619Z,2.47
2019-04-20T09:07:57.184Z,2.30
2019-04-20T09:10:38.014Z,1.97
2019-04-20T09:12:57.391Z,2.10
2019-04-20T09:15:16.845Z,2.30
2019-04-20T09:17:49.458Z,2.00
2019-04-20T09:20:21.517Z,2.50
2019-04-20T09:22:50.657Z,2.40
2019-04-20T09:27:45.708Z,2.57
2019-04-20T09:30:24.299Z,2.30
2019-04-20T09:32:56.710Z,1.87
2019-04-20T09:35:27.724Z,1.60
2019-04-20T09:37:53.115Z,2.20
2019-04-20T09:40:29.331Z,1.80
2019-04-20T09:42:34.991Z,1.90
2019-04-20T09:45:04.916Z,1.90
2019-04-20T09:47:36.903Z,1.83
2019-04-20T09:50:13.445Z,2.17
2019-04-20T09:52:48.014Z,2.10
2019-04-20T09:55:10.703Z,1.90
2019-04-20T09:57:43.858Z,2.20
2019-04-20T10:00:13.336Z,1.83
2019-04-20T10:02:27.812Z,2.10
2019-04-20T10:04:51.617Z,1.77
2019-04-20T10:07:22.243Z,2.00
2019-04-20T10:09:48.372Z,1.97
2019-04-20T10:12:15.742Z,1.87
2019-04-20T10:14:42.796Z,1.90
2019-04-20T10:17:09.712Z,2.00
2019-04-20T10:19:39.129Z,1.60
2019-04-20T10:22:05.094Z,2.00
2019-04-20T10:24:32.799Z,2.00
2019-04-20T10:27:00.807Z,1.90
2019-04-20T10:29:27.929Z,1.60
2019-04-20T10:31:58.535Z,1.80
2019-04-20T10:34:24.224Z,2.20
2019-04-20T10:36:51.440Z,2.40
2019-04-20T10:39:18.514Z,1.90
2019-04-20T10:41:51.275Z,1.83
2019-04-20T10:44:14.666Z,1.70
2019-04-20T10:46:42.818Z,1.90
2019-04-20T10:49:11.090Z,1.83
2019-04-20T10:51:38.125Z,1.80
2019-04-20T10:54:04.924Z,1.60
2019-04-20T10:56:31.777Z,1.60
2019-04-20T10:58:58.509Z,2.00
2019-04-20T11:01:25.453Z,1.80
2019-04-20T11:03:52.373Z,1.70
2019-04-20T11:06:20.557Z,1.67
2019-04-20T11:08:48.649Z,1.87
2019-04-20T11:11:22.849Z,1.87
2019-04-20T11:13:44.092Z,1.60
2019-04-20T11:16:10.871Z,1.63
2019-04-20T11:18:37.729Z,1.50
2019-04-20T11:21:04.573Z,1.73
2019-04-20T11:23:32.097Z,1.87
2019-04-20T11:26:00.151Z,1.70
2019-04-20T11:28:28.193Z,1.60
2019-04-20T11:30:56.229Z,1.37
2019-04-20T11:33:24.449Z,1.40
2019-04-20T11:35:51.589Z,1.70
2019-04-20T11:38:19.629Z,1.63
2019-04-20T11:40:48.171Z,1.50
2019-04-20T11:43:15.625Z,1.37
2019-04-20T11:45:42.735Z,1.50
2019-04-20T11:48:09.758Z,1.60
2019-04-20T11:50:37.707Z,1.50
2019-04-20T11:53:05.586Z,1.50
2019-04-20T11:55:34.012Z,1.53
2019-04-20T11:58:01.709Z,1.80
2019-04-20T12:00:52.080Z,1.77
2019-04-20T12:03:21.349Z,3.00
2019-04-20T12:05:44.550Z,8.97
2019-04-20T12:08:09.106Z,49.93
2019-04-20T12:10:37.175Z,29.60
2019-04-20T12:13:03.985Z,20.63
2019-04-20T12:15:33.667Z,23.10
2019-04-20T12:17:59.871Z,7.07
2019-04-20T12:20:26.952Z,1.93
2019-04-20T12:22:54.637Z,3.70
2019-04-20T12:25:21.538Z,3.00
2019-04-20T12:27:52.574Z,3.27
2019-04-20T12:30:17.583Z,2.30
2019-04-20T12:32:50.477Z,2.33
2019-04-20T12:35:14.116Z,2.10
2019-04-20T12:37:41.250Z,2.10
2019-04-20T12:40:12.133Z,2.37
2019-04-20T12:42:39.252Z,1.80
2019-04-20T12:45:09.610Z,2.10
2019-04-20T12:47:37.481Z,1.73
2019-04-20T12:50:07.669Z,2.00
2019-04-20T12:52:34.693Z,1.53
2019-04-20T12:55:04.356Z,1.80
2019-04-20T12:57:30.239Z,1.60
2019-04-20T12:59:57.288Z,1.90
2019-04-20T13:02:25.151Z,1.70
2019-04-20T13:04:53.297Z,1.90
2019-04-20T13:07:21.040Z,1.83
2019-04-20T13:09:50.852Z,1.73
2019-04-20T13:12:19.475Z,1.80
2019-04-20T13:15:06.540Z,1.63
2019-04-20T13:17:34.452Z,1.90
2019-04-20T13:20:01.738Z,1.70
2019-04-20T13:22:28.742Z,1.73
2019-04-20T13:24:56.935Z,1.70
2019-04-20T13:27:25.056Z,1.67
2019-04-20T13:29:52.977Z,1.90
2019-04-20T13:32:20.449Z,1.90
2019-04-20T13:34:47.316Z,1.70
2019-04-20T13:37:14.202Z,1.97
2019-04-20T13:39:40.938Z,1.63
2019-04-20T13:42:16.063Z,1.73
2019-04-20T13:44:38.734Z,1.90
2019-04-20T13:47:07.258Z,1.80
2019-04-20T13:49:34.175Z,1.80
2019-04-20T13:52:00.957Z,1.83
2019-04-20T13:54:28.583Z,1.90
2019-04-20T13:56:56.618Z,1.70
2019-04-20T13:59:24.568Z,1.70
2019-04-20T14:01:52.822Z,1.63
2019-04-20T14:04:20.970Z,1.77
2019-04-20T14:06:49.492Z,1.80
2019-04-20T14:09:17.184Z,1.80
2019-04-20T14:11:45.289Z,1.90
2019-04-20T14:14:13.085Z,1.90
2019-04-20T14:16:41.217Z,1.70
2019-04-20T14:19:09.303Z,1.90
2019-04-20T14:21:36.475Z,1.93
2019-04-20T14:24:04.350Z,1.67
2019-04-20T14:26:32.649Z,1.67
2019-04-20T14:29:00.879Z,1.80
2019-04-20T14:31:27.960Z,1.80
2019-04-20T14:33:57.123Z,2.57
2019-04-20T14:36:24.382Z,1.67
2019-04-20T14:38:51.976Z,1.90
2019-04-20T14:41:20.584Z,2.13
2019-04-20T14:43:48.886Z,1.63
2019-04-20T14:46:16.826Z,1.70
2019-04-20T14:48:44.878Z,1.50
2019-04-20T14:51:11.892Z,2.40
2019-04-20T14:53:38.713Z,1.60
2019-04-20T14:56:05.447Z,1.73
2019-04-20T14:58:33.722Z,1.73
2019-04-20T15:01:00.873Z,1.80
2019-04-20T15:03:28.308Z,1.70
2019-04-20T15:06:00.000Z,1.77
2019-04-20T15:08:27.018Z,1.70
2019-04-20T15:10:54.573Z,1.57
2019-04-20T15:13:22.556Z,1.70
2019-04-20T15:15:50.629Z,1.80
2019-04-20T15:18:17.735Z,1.70
2019-04-20T15:20:45.697Z,1.80
2019-04-20T15:23:12.470Z,1.80
2019-04-20T15:25:40.237Z,1.70
2019-04-20T15:28:08.246Z,1.60
2019-04-20T15:30:36.111Z,1.63
2019-04-20T15:33:03.221Z,1.83
2019-04-20T15:35:30.230Z,1.70
2019-04-20T15:37:57.319Z,1.60
2019-04-20T15:40:27.016Z,1.80
2019-04-20T15:43:01.087Z,1.80
2019-04-20T15:45:23.495Z,1.77
2019-04-20T15:47:50.339Z,1.90
2019-04-20T15:50:18.086Z,1.67
2019-04-20T15:52:50.504Z,2.00
2019-04-20T15:55:22.646Z,1.70
2019-04-20T15:57:42.774Z,1.93
2019-04-20T16:00:10.923Z,1.60
2019-04-20T16:02:39.034Z,1.60
2019-04-20T16:05:06.465Z,1.47
2019-04-20T16:07:39.179Z,1.93
2019-04-20T16:10:07.451Z,1.80
2019-04-20T16:12:35.091Z,2.10
2019-04-20T16:15:03.938Z,2.00
2019-04-20T16:17:36.862Z,2.00
2019-04-20T16:20:06.411Z,2.23
2019-04-20T16:22:28.920Z,2.30
2019-04-20T16:24:59.177Z,1.87
2019-04-20T16:27:27.553Z,3.00
2019-04-20T16:29:55.783Z,2.27
2019-04-20T16:32:42.722Z,2.33
2019-04-20T16:35:10.884Z,1.70
2019-04-20T16:37:38.371Z,1.90
2019-04-20T16:40:07.715Z,1.80
2019-04-20T16:42:38.493Z,1.90
2019-04-20T16:45:07.254Z,2.07
2019-04-20T16:47:34.371Z,2.30
2019-04-20T16:50:01.295Z,2.40
2019-04-20T16:52:28.834Z,4.67
2019-04-20T16:54:55.709Z,3.07
2019-04-20T16:57:23.679Z,2.20
2019-04-20T16:59:53.009Z,3.37
2019-04-20T17:02:19.887Z,1.87
2019-04-20T17:04:50.317Z,1.80
2019-04-20T17:07:16.687Z,2.10
2019-04-20T17:09:43.932Z,1.73
2019-04-20T17:12:11.975Z,1.90
2019-04-20T17:14:39.919Z,2.00
2019-04-20T17:17:07.423Z,2.20
2019-04-20T17:19:35.522Z,1.80
2019-04-20T17:22:03.617Z,2.20
2019-04-20T17:24:31.355Z,1.90
2019-04-20T17:26:59.088Z,1.70
2019-04-20T17:29:26.281Z,1.60
2019-04-20T17:31:53.554Z,1.90
2019-04-20T17:34:36.333Z,1.90
2019-04-20T17:36:50.491Z,1.90
2019-04-20T17:39:27.810Z,1.80
2019-04-20T17:42:03.441Z,1.97
2019-04-20T17:44:31.497Z,2.00
2019-04-20T17:46:56.877Z,1.90
2019-04-20T17:49:28.109Z,1.87
2019-04-20T17:52:05.089Z,1.90
2019-04-20T17:54:10.560Z,1.90
2019-04-20T17:56:38.391Z,1.70
2019-04-20T17:59:06.154Z,1.70
2019-04-20T18:01:49.977Z,1.90
2019-04-20T18:04:37.003Z,1.70
2019-04-20T18:06:43.689Z,1.90
2019-04-20T18:09:13.286Z,2.10
2019-04-20T18:11:36.248Z,1.77
2019-04-20T18:14:04.273Z,2.00
2019-04-20T18:16:46.858Z,1.90
2019-04-20T18:19:03.256Z,2.00
2019-04-20T18:21:24.415Z,1.80
2019-04-20T18:23:51.889Z,1.70
2019-04-20T18:26:37.855Z,1.77
2019-04-20T18:29:21.363Z,1.60
2019-04-20T18:31:15.847Z,1.70
2019-04-20T18:33:42.602Z,2.00
2019-04-20T18:36:13.363Z,2.10
2019-04-20T18:38:49.084Z,2.37
2019-04-20T18:41:08.895Z,2.10
2019-04-20T18:43:42.711Z,2.00
2019-04-20T18:46:23.778Z,2.97
2019-04-20T18:48:57.104Z,2.30
2019-04-20T18:51:02.043Z,2.17
2019-04-20T18:53:35.964Z,1.90
2019-04-20T18:56:00.565Z,2.10
2019-04-20T18:58:27.016Z,2.10
2019-04-20T19:01:14.998Z,1.80
2019-04-20T19:03:44.003Z,1.97
2019-04-20T19:06:12.090Z,2.47
2019-04-20T19:08:44.659Z,2.30
2019-04-20T19:11:11.453Z,2.37
2019-04-20T19:13:38.741Z,2.50
2019-04-20T19:16:16.680Z,2.20
2019-04-20T19:18:50.735Z,2.70
2019-04-20T19:21:03.419Z,2.37
2019-04-20T19:23:33.799Z,2.40
2019-04-20T19:26:04.452Z,2.07
2019-04-20T19:28:35.212Z,2.40
2019-04-20T19:31:12.579Z,2.20
2019-04-20T19:33:37.613Z,2.10
2019-04-20T19:36:09.223Z,2.00
2019-04-20T19:38:29.494Z,1.87
2019-04-20T19:40:59.428Z,2.10
2019-04-20T19:43:26.648Z,2.30
2019-04-20T19:46:30.991Z,2.30
2019-04-20T19:48:27.893Z,2.00
2019-04-20T19:51:24.899Z,2.33
2019-04-20T19:53:38.122Z,2.10
2019-04-20T19:55:56.322Z,2.27
2019-04-20T19:58:26.405Z,2.50
2019-04-20T20:00:53.600Z,2.50
2019-04-20T20:03:19.963Z,2.57
2019-04-20T20:05:49.890Z,2.50
2019-04-20T20:08:20.996Z,2.60
2019-04-20T20:10:45.722Z,2.60
2019-04-20T20:13:13.182Z,2.70
2019-04-20T20:15:41.792Z,2.90
2019-04-20T20:18:27.872Z,2.73
2019-04-20T20:20:55.360Z,2.50
2019-04-20T20:23:05.833Z,2.80
2019-04-20T20:25:37.346Z,2.43
2019-04-20T20:28:14.520Z,2.90
2019-04-20T20:30:35.349Z,2.70
2019-04-20T20:33:16.074Z,2.77
2019-04-20T20:35:30.780Z,3.10
2019-04-20T20:37:59.464Z,2.83
2019-04-20T20:40:29.844Z,3.03
2019-04-20T20:43:04.803Z,3.00
2019-04-20T20:45:32.785Z,3.33
2019-04-20T20:48:12.067Z,3.03
2019-04-20T20:50:36.381Z,3.33
2019-04-20T20:53:00.983Z,3.27
2019-04-20T20:55:25.818Z,3.00
2019-04-20T20:57:55.727Z,2.90
2019-04-20T21:00:34.439Z,3.20
2019-04-20T21:02:50.331Z,3.03
2019-04-20T21:05:11.588Z,3.03
2019-04-20T21:07:38.678Z,3.30
2019-04-20T21:10:08.323Z,3.30
2019-04-20T21:12:37.333Z,3.43
2019-04-20T21:15:12.267Z,2.90
2019-04-20T21:17:47.646Z,3.20
2019-04-20T21:20:20.419Z,3.10
2019-04-20T21:22:57.513Z,3.40
2019-04-20T21:25:07.273Z,3.40
2019-04-20T21:27:34.989Z,4.00
2019-04-20T21:30:03.581Z,3.90
2019-04-20T21:32:33.019Z,3.90
2019-04-20T21:35:03.503Z,3.50
2019-04-20T21:37:28.942Z,3.63
2019-04-20T21:39:59.685Z,3.80
2019-04-20T21:42:26.762Z,3.40
2019-04-20T21:45:05.860Z,3.23
2019-04-20T21:47:28.003Z,3.13
2019-04-20T21:50:03.129Z,3.50
2019-04-20T21:52:27.225Z,3.57
2019-04-20T21:54:47.906Z,3.37
2019-04-20T21:57:16.434Z,3.23
2019-04-20T21:59:48.496Z,3.67
2019-04-20T22:02:19.456Z,3.60
2019-04-20T22:04:40.699Z,3.60
2019-04-20T22:07:08.048Z,3.50
2019-04-20T22:09:42.272Z,3.60
2019-04-20T22:12:05.772Z,3.30
2019-04-20T22:14:33.986Z,3.30
2019-04-20T22:17:03.659Z,3.50
2019-04-20T22:19:41.042Z,3.33
2019-04-20T22:22:05.486Z,3.00
2019-04-20T22:24:42.212Z,3.30
2019-04-20T22:27:07.787Z,3.00
2019-04-20T22:29:24.007Z,3.00
2019-04-20T22:31:53.481Z,3.27
2019-04-20T22:34:23.825Z,3.30
2019-04-20T22:36:50.071Z,3.20
2019-04-20T22:39:16.446Z,2.87
2019-04-20T22:41:45.790Z,3.10
2019-04-20T22:44:15.166Z,2.90
2019-04-20T22:46:42.253Z,3.40
2019-04-20T22:49:28.190Z,3.57
2019-04-20T22:51:50.516Z,3.17
2019-04-20T22:54:21.925Z,3.70
2019-04-20T22:56:47.035Z,3.30
2019-04-20T22:59:12.584Z,3.37
2019-04-20T23:01:40.436Z,3.10
2019-04-20T23:04:01.509Z,3.23
2019-04-20T23:06:33.377Z,3.60
2019-04-20T23:09:01.073Z,3.37
2019-04-20T23:11:29.076Z,3.30
2019-04-20T23:13:54.024Z,3.53
2019-04-20T23:16:21.025Z,3.50
2019-04-20T23:18:47.886Z,3.63
2019-04-20T23:21:17.388Z,3.40
2019-04-20T23:23:43.703Z,3.63
2019-04-20T23:26:11.423Z,3.97
2019-04-20T23:28:47.763Z,3.63
2019-04-20T23:31:15.197Z,3.60
2019-04-20T23:33:36.395Z,3.97
2019-04-20T23:36:04.693Z,3.70
2019-04-20T23:38:32.724Z,3.47
2019-04-20T23:40:59.672Z,3.47
2019-04-20T23:43:29.893Z,3.90
2019-04-20T23:45:54.980Z,3.53
2019-04-20T23:48:23.685Z,3.60
2019-04-20T23:51:05.821Z,3.80
2019-04-20T23:53:35.129Z,3.60
2019-04-20T23:55:47.885Z,3.90
2019-04-20T23:58:16.438Z,3.87
